Plover Skycam (click)  Plover Skycam (click)


Rain radar more information rain snow radar



There are no active watches, warnings or advisories

Weather Underground History page Text

Daily Summary for January 19, 2018 Units:  English    Metric   Both
« Previous Day
Next Day »
Daily Weekly Monthly Yearly Custom
  Current: High: Low: Average:
Temperature: 18.3 °F 20.1 °F 18.3 °F 19.3 °F
Dew Point: 14.0 °F 15.0 °F 13.7 °F 14.5 °F
Humidity: 83 % 84 % 78 % 81 %
Wind Speed: 5.8 mph 6.9 mph 4.6 mph 5.4 mph
Wind Gust: 5.8 mph 6.9 mph - -
Wind:SW - - SW
Pressure: 29.78 in 29.81 in 29.78 in -
Precipitation: 0.00 in      
Historical Graphs
 
 
Tabular Data for January 19, 2018
Time Temperature Dew Point Pressure Wind Wind Speed Wind Gust Humidity Rainfall Rate (Hourly)
00:01 19.6 °F 13.8 °F 29.81 in SW 5.8 mph 5.8 mph 78 % 0.00 in
00:06 19.8 °F 14.0 °F 29.81 in SW 5.8 mph 5.8 mph 78 % 0.00 in
00:10 19.9 °F 14.8 °F 29.81 in SW 5.8 mph 5.8 mph 80 % 0.00 in
00:15 20.1 °F 14.9 °F 29.81 in SW 5.8 mph 5.8 mph 80 % 0.00 in
00:20 20.1 °F 14.9 °F 29.81 in SW 5.8 mph 5.8 mph 80 % 0.00 in
00:25 20.1 °F 14.9 °F 29.81 in SW 5.8 mph 5.8 mph 80 % 0.00 in
00:31 20.1 °F 14.9 °F 29.81 in SW 5.8 mph 5.8 mph 80 % 0.00 in
00:35 19.9 °F 14.8 °F 29.81 in SW 5.8 mph 5.8 mph 80 % 0.00 in
00:40 19.9 °F 14.8 °F 29.78 in SW 5.8 mph 5.8 mph 80 % 0.00 in
00:46 19.9 °F 14.8 °F 29.78 in SW 5.8 mph 5.8 mph 80 % 0.00 in
00:51 19.8 °F 14.6 °F 29.78 in SW 5.8 mph 5.8 mph 80 % 0.00 in
00:56 19.6 °F 14.4 °F 29.78 in SW 4.6 mph 4.6 mph 80 % 0.00 in
01:00 19.6 °F 14.4 °F 29.78 in SW 4.6 mph 4.6 mph 80 % 0.00 in
01:05 19.6 °F 14.4 °F 29.78 in SW 4.6 mph 4.6 mph 80 % 0.00 in
01:10 19.6 °F 15.0 °F 29.78 in SW 4.6 mph 4.6 mph 82 % 0.00 in
01:15 19.4 °F 14.8 °F 29.78 in SW 4.6 mph 4.6 mph 82 % 0.00 in
01:20 19.4 °F 14.8 °F 29.78 in SW 4.6 mph 4.6 mph 82 % 0.00 in
01:25 19.4 °F 14.8 °F 29.78 in SW 4.6 mph 4.6 mph 82 % 0.00 in
01:30 19.4 °F 14.8 °F 29.78 in SW 5.8 mph 5.8 mph 82 % 0.00 in
01:35 19.4 °F 14.8 °F 29.78 in SW 5.8 mph 5.8 mph 82 % 0.00 in
01:40 19.4 °F 14.8 °F 29.78 in SW 5.8 mph 5.8 mph 82 % 0.00 in
01:45 19.2 °F 14.6 °F 29.78 in SW 5.8 mph 5.8 mph 82 % 0.00 in
01:50 19.2 °F 14.6 °F 29.78 in SW 5.8 mph 5.8 mph 82 % 0.00 in
01:55 19.2 °F 14.6 °F 29.78 in SW 4.6 mph 4.6 mph 82 % 0.00 in
02:00 19.0 °F 14.4 °F 29.78 in SW 4.6 mph 4.6 mph 82 % 0.00 in
02:05 19.0 °F 14.4 °F 29.78 in SW 4.6 mph 4.6 mph 82 % 0.00 in
02:10 18.9 °F 14.8 °F 29.78 in SW 4.6 mph 6.9 mph 84 % 0.00 in
02:15 18.9 °F 14.8 °F 29.78 in SW 6.9 mph 6.9 mph 84 % 0.00 in
02:20 18.9 °F 14.8 °F 29.78 in SW 6.9 mph 6.9 mph 84 % 0.00 in
02:25 18.7 °F 14.6 °F 29.78 in SW 6.9 mph 6.9 mph 84 % 0.00 in
02:30 18.7 °F 14.1 °F 29.78 in WSW 6.9 mph 6.9 mph 82 % 0.00 in
02:35 18.5 °F 13.9 °F 29.78 in WSW 4.6 mph 4.6 mph 82 % 0.00 in
02:40 18.3 °F 13.7 °F 29.78 in WSW 4.6 mph 4.6 mph 82 % 0.00 in
02:45 18.3 °F 13.7 °F 29.78 in WSW 4.6 mph 4.6 mph 82 % 0.00 in
02:51 18.3 °F 14.0 °F 29.78 in SW 4.6 mph 5.8 mph 83 % 0.00 in
02:56 18.3 °F 14.0 °F 29.78 in SW 5.8 mph 5.8 mph 83 % 0.00 in
03:01 18.3 °F 14.0 °F 29.78 in SW 5.8 mph 5.8 mph 83 % 0.00 in
Live Plover Wisconsin Weather - Tim Bubla
Compliments of Weather Underground - 2.25 mb

Script developed by  Jim McMurry - jmcmurry@mwt.net Adapted for the template by  Wim van der Kuil - Leuven-Template.eu